| time (UTC) | temp F | wind direction | speed knots | gust knots | rain 1hr in | rain 24hr in | rain mn in | humidity % | barometer mb |
| 20260503231535 | 68 | 242 | 6.1 | 15.6 | 0.00 | 0.00 | 0.00 | 45 | 1003.5 |
| 20260503230033 | 68 | 223 | 6.1 | 9.6 | 0.00 | 0.00 | 0.00 | 45 | 1003.6 |
| 20260503224531 | 68 | 255 | 7.8 | 15.6 | 0.00 | 0.00 | 0.00 | 44 | 1003.8 |
| 20260503223028 | 68 | 248 | 9.6 | 18.2 | 0.00 | 0.00 | 0.00 | 44 | 1004.0 |
| 20260503221528 | 68 | 248 | 8.7 | 13.0 | 0.00 | 0.00 | 0.00 | 44 | 1003.9 |
| 20260503220026 | 68 | 251 | 7.8 | 16.5 | 0.00 | 0.00 | 0.00 | 45 | 1003.8 |
| 20260503214523 | 68 | 211 | 7.8 | 13.0 | 0.00 | 0.00 | 0.00 | 46 | 1004.0 |
| 20260503213020 | 68 | 268 | 9.6 | 14.8 | 0.00 | 0.00 | 0.00 | 45 | 1004.1 |
| 20260503211523 | 67 | 240 | 9.6 | 17.4 | 0.00 | 0.00 | 0.00 | 45 | 1004.5 |
| 20260503210017 | 67 | 238 | 10.4 | 19.1 | 0.00 | 0.00 | 0.00 | 44 | 1004.6 |
| 20260503204513 | 67 | 238 | 8.7 | 19.1 | 0.00 | 0.00 | 0.00 | 46 | 1004.8 |
| 20260503203009 | 64 | 276 | 7.0 | 19.1 | 0.00 | 0.00 | 0.00 | 53 | 1005.1 |
| 20260503201508 | 64 | 202 | 6.1 | 18.2 | 0.00 | 0.00 | 0.00 | 52 | 1005.6 |
| 20260503200006 | 64 | 217 | 11.3 | 26.9 | 0.00 | 0.00 | 0.00 | 51 | 1006.0 |
| 20260503194503 | 64 | 240 | 7.0 | 21.7 | 0.00 | 0.00 | 0.00 | 51 | 1006.2 |
| 20260503193002 | 65 | 291 | 8.7 | 19.1 | 0.00 | 0.00 | 0.00 | 48 | 1006.3 |
| 20260503191600 | 64 | 239 | 7.8 | 18.2 | 0.00 | 0.00 | 0.00 | 45 | 1006.4 |
| 20260503190108 | 64 | 248 | 5.2 | 22.6 | 0.00 | 0.00 | 0.00 | 48 | 1006.4 |
| 20260503184556 | 64 | 179 | 10.4 | 18.2 | 0.00 | 0.00 | 0.00 | 47 | 1006.6 |
| 20260503183101 | 63 | 199 | 7.8 | 22.6 | 0.00 | 0.00 | 0.00 | 49 | 1006.7 |
| 20260503181550 | 62 | 197 | 8.7 | 20.0 | 0.00 | 0.00 | 0.00 | 51 | 1006.9 |
| 20260503180055 | 61 | 212 | 7.8 | 16.5 | 0.00 | 0.00 | 0.00 | 54 | 1007.2 |
| 20260503174543 | 59 | 213 | 7.0 | 19.1 | 0.00 | 0.00 | 0.00 | 58 | 1007.6 |
| 20260503173056 | 57 | 188 | 9.6 | 16.5 | 0.00 | 0.00 | 0.00 | 60 | 1008.0 |
| 20260503171541 | 56 | 184 | 8.7 | 21.7 | 0.00 | 0.00 | 0.00 | 61 | 1008.5 |
| 20260503081536 | 46 | 240 | 4.3 | 9.6 | 0.00 | 0.00 | 0.00 | 60 | 1012.3 |
| 20260503071517 | 45 | 232 | 4.3 | 11.3 | 0.00 | 0.00 | 0.00 | 62 | 1012.6 |
| 20260503054501 | 45 | 246 | 2.6 | 7.8 | 0.00 | 0.00 | 0.00 | 64 | 1013.4 |
| 20260503053100 | 44 | 222 | 2.6 | 7.0 | 0.00 | 0.00 | 0.00 | 64 | 1013.5 |
| 20260503051600 | 44 | 257 | 2.6 | 6.1 | 0.00 | 0.00 | 0.00 | 65 | 1013.6 |
| 20260503050053 | 44 | 263 | 2.6 | 6.1 | 0.00 | 0.00 | 0.00 | 66 | 1013.6 |
| 20260503044551 | 43 | 220 | 1.7 | 7.8 | 0.00 | 0.00 | 0.00 | 68 | 1013.8 |
| 20260503043053 | 43 | 234 | 1.7 | 6.1 | 0.00 | 0.00 | 0.00 | 69 | 1013.8 |
| 20260503041549 | 41 | 227 | 1.7 | 5.2 | 0.00 | 0.00 | 0.00 | 72 | 1013.9 |
| 20260503040049 | 40 | 227 | 0.9 | 3.5 | 0.00 | 0.00 | 0.00 | 75 | 1014.0 |
| 20260503034548 | 40 | 175 | 0.0 | 2.6 | 0.00 | 0.00 | 0.00 | 77 | 1014.2 |
| 20260503033047 | 40 | 132 | 0.0 | 0.0 | 0.00 | 0.00 | 0.00 | 77 | 1014.2 |
| 20260503031545 | 41 | 132 | 0.0 | 0.0 | 0.00 | 0.00 | 0.00 | 77 | 1014.3 |
| 20260503030044 | 41 | 132 | 0.0 | 0.0 | 0.00 | 0.00 | 0.00 | 75 | 1014.5 |
| 20260503024543 | 42 | 132 | 0.0 | 0.0 | 0.00 | 0.00 | 0.00 | 75 | 1014.5 |
| 20260503023043 | 42 | 132 | 0.0 | 1.7 | 0.00 | 0.00 | 0.00 | 74 | 1014.6 |
| 20260503021548 | 43 | 132 | 0.9 | 2.6 | 0.00 | 0.00 | 0.00 | 73 | 1014.6 |
| 20260503020050 | 43 | 131 | 0.0 | 1.7 | 0.00 | 0.00 | 0.00 | 71 | 1014.4 |
| 20260503014607 | 44 | 131 | 0.9 | 2.6 | 0.00 | 0.00 | 0.00 | 70 | 1014.3 |
| 20260503013041 | 45 | 136 | 0.0 | 2.6 | 0.00 | 0.00 | 0.00 | 69 | 1014.3 |
| 20260503011546 | 46 | 136 | 0.0 | 2.6 | 0.00 | 0.00 | 0.00 | 67 | 1014.3 |
| 20260503010049 | 46 | 136 | 0.9 | 5.2 | 0.00 | 0.00 | 0.00 | 66 | 1014.4 |
| 20260503004544 | 47 | 133 | 2.6 | 4.3 | 0.00 | 0.00 | 0.00 | 65 | 1014.4 |
| 20260503003036 | 48 | 148 | 0.9 | 5.2 | 0.00 | 0.00 | 0.00 | 63 | 1014.5 |
| 20260503001534 | 48 | 150 | 2.6 | 6.1 | 0.00 | 0.00 | 0.00 | 62 | 1014.4 |
| 20260503000033 | 49 | 126 | 3.5 | 7.0 | 0.00 | 0.00 | 0.00 | 60 | 1014.6 |
| 20260502234538 | 50 | 138 | 1.7 | 6.1 | 0.00 | 0.00 | 0.00 | 60 | 1014.7 |
| 20260502233029 | 50 | 117 | 2.6 | 7.8 | 0.00 | 0.00 | 0.00 | 58 | 1014.9 |